createdAt,value
2023-06-30T00:02:00.665Z,45.88
2023-06-30T00:04:31.475Z,45.66
2023-06-30T00:06:59.168Z,45.70
2023-06-30T00:09:26.711Z,46.89
2023-06-30T00:11:55.012Z,46.73
2023-06-30T00:14:22.871Z,45.71
2023-06-30T00:16:51.026Z,45.52
2023-06-30T00:19:18.716Z,45.26
2023-06-30T00:21:46.269Z,45.31
2023-06-30T00:24:14.314Z,45.36
2023-06-30T00:26:41.894Z,45.25
2023-06-30T00:29:10.072Z,45.25
2023-06-30T00:31:37.777Z,45.56
2023-06-30T00:34:05.294Z,45.63
2023-06-30T00:36:32.677Z,45.56
2023-06-30T00:39:00.701Z,46.06
2023-06-30T00:41:28.135Z,46.10
2023-06-30T00:43:57.041Z,45.86
2023-06-30T00:46:24.470Z,45.65
2023-06-30T00:48:51.792Z,45.34
2023-06-30T00:51:19.092Z,45.23
2023-06-30T00:53:46.534Z,45.33
2023-06-30T00:56:14.042Z,45.18
2023-06-30T00:58:41.388Z,45.24
2023-06-30T01:01:17.155Z,45.49
2023-06-30T01:03:48.471Z,45.58
2023-06-30T01:06:17.685Z,45.17
2023-06-30T01:08:56.811Z,45.32
2023-06-30T01:11:25.712Z,45.01
2023-06-30T01:13:54.635Z,45.54
2023-06-30T01:16:24.001Z,45.72
2023-06-30T01:18:54.216Z,45.36
2023-06-30T01:21:22.973Z,44.93
2023-06-30T01:23:55.689Z,45.10
2023-06-30T01:26:23.401Z,45.10
2023-06-30T01:28:52.298Z,45.35
2023-06-30T01:31:20.704Z,45.93
2023-06-30T01:33:48.179Z,45.81
2023-06-30T01:36:15.555Z,45.61
2023-06-30T01:38:44.128Z,45.35
2023-06-30T01:41:11.606Z,45.14
2023-06-30T01:43:40.114Z,45.04
2023-06-30T01:46:07.519Z,44.89
2023-06-30T01:48:35.002Z,44.92
2023-06-30T01:51:02.424Z,45.01
2023-06-30T01:53:29.771Z,45.39
2023-06-30T01:55:57.073Z,45.85
2023-06-30T01:58:24.411Z,46.24
2023-06-30T02:00:51.812Z,46.28
2023-06-30T02:03:19.303Z,46.01
2023-06-30T02:05:50.219Z,45.82
2023-06-30T02:08:17.724Z,45.33
2023-06-30T02:10:45.109Z,45.17
2023-06-30T02:13:12.549Z,45.24
2023-06-30T02:15:39.921Z,45.17
2023-06-30T02:18:07.355Z,45.12
2023-06-30T02:20:36.382Z,44.95
2023-06-30T02:23:04.275Z,44.60
2023-06-30T02:25:31.576Z,44.29
2023-06-30T02:27:59.062Z,44.53
2023-06-30T02:30:26.403Z,44.79
2023-06-30T02:32:54.646Z,44.50
2023-06-30T02:35:22.276Z,44.19
2023-06-30T02:37:49.693Z,44.25
2023-06-30T02:42:56.950Z,52.65
2023-06-30T02:45:24.560Z,50.12
2023-06-30T02:47:52.063Z,49.04
2023-06-30T02:50:23.569Z,48.33
2023-06-30T02:52:53.194Z,48.48
2023-06-30T02:55:20.643Z,48.43
2023-06-30T02:57:48.556Z,47.78
2023-06-30T03:00:16.696Z,47.84
2023-06-30T03:02:44.256Z,47.76
2023-06-30T03:05:11.808Z,47.43
2023-06-30T03:07:39.918Z,47.53
2023-06-30T03:10:08.646Z,47.61
2023-06-30T03:12:36.718Z,47.26
2023-06-30T03:15:05.250Z,47.23
2023-06-30T03:17:33.372Z,46.57
2023-06-30T03:20:01.254Z,46.24
2023-06-30T03:22:28.616Z,46.11
2023-06-30T03:24:58.705Z,46.37
2023-06-30T03:27:26.146Z,45.65
2023-06-30T03:29:53.548Z,45.30
2023-06-30T03:32:20.939Z,45.32
2023-06-30T03:34:48.361Z,45.66
2023-06-30T03:37:15.669Z,45.58
2023-06-30T03:39:43.159Z,45.15
2023-06-30T03:42:10.592Z,45.51
2023-06-30T03:44:38.935Z,45.59
2023-06-30T03:47:06.344Z,45.38
2023-06-30T03:49:33.620Z,45.03
2023-06-30T03:52:01.965Z,44.47
2023-06-30T03:54:29.286Z,44.23
2023-06-30T03:56:58.264Z,43.80
2023-06-30T03:59:25.678Z,43.26
2023-06-30T04:01:53.955Z,43.02
2023-06-30T04:04:22.249Z,42.47
2023-06-30T04:06:49.781Z,42.32
2023-06-30T04:09:17.207Z,42.19
2023-06-30T04:11:44.526Z,41.54
2023-06-30T04:14:11.841Z,40.75
2023-06-30T04:16:39.278Z,40.20
2023-06-30T04:19:06.820Z,39.70
2023-06-30T04:21:34.156Z,39.12
2023-06-30T04:24:01.485Z,39.05
2023-06-30T04:26:29.776Z,39.06
2023-06-30T04:28:57.680Z,38.83
2023-06-30T04:31:27.964Z,38.72
2023-06-30T04:33:55.892Z,38.91
2023-06-30T04:36:23.313Z,38.89
2023-06-30T04:38:51.170Z,39.29
2023-06-30T04:41:19.325Z,39.65
2023-06-30T04:43:46.629Z,39.86
2023-06-30T04:46:13.985Z,40.16
2023-06-30T04:48:41.350Z,40.31
2023-06-30T04:51:08.703Z,40.35
2023-06-30T04:53:36.889Z,40.53
2023-06-30T04:56:04.407Z,40.55
2023-06-30T04:58:31.793Z,40.48
2023-06-30T05:00:59.195Z,40.34
2023-06-30T05:03:26.636Z,40.04
2023-06-30T05:05:54.024Z,40.09
2023-06-30T05:08:21.708Z,40.22
2023-06-30T05:10:49.231Z,39.66
2023-06-30T05:13:16.613Z,38.79
2023-06-30T05:15:44.285Z,38.04
2023-06-30T05:18:12.018Z,37.36
2023-06-30T05:20:40.529Z,36.94
2023-06-30T05:23:07.834Z,36.62
2023-06-30T05:25:35.760Z,36.27
2023-06-30T05:28:03.904Z,35.72
2023-06-30T05:30:31.305Z,35.35
2023-06-30T05:32:58.649Z,34.95
2023-06-30T05:35:26.066Z,35.15
2023-06-30T05:37:53.368Z,34.40
2023-06-30T05:40:20.826Z,34.08
2023-06-30T05:42:48.137Z,34.07
2023-06-30T05:45:15.476Z,33.28
2023-06-30T05:47:42.815Z,33.18
2023-06-30T05:50:10.396Z,33.40
2023-06-30T05:52:37.939Z,33.36
2023-06-30T05:55:05.844Z,33.60
2023-06-30T05:57:34.707Z,33.47
2023-06-30T06:00:02.168Z,33.64
2023-06-30T06:02:39.408Z,33.57
2023-06-30T06:05:07.272Z,33.02
2023-06-30T06:07:35.687Z,32.72
2023-06-30T06:10:03.142Z,32.83
2023-06-30T06:12:30.853Z,32.64
2023-06-30T06:14:58.216Z,32.77
2023-06-30T06:17:25.557Z,32.80
2023-06-30T06:19:53.198Z,32.82
2023-06-30T06:22:20.550Z,32.00
2023-06-30T06:24:47.845Z,31.82
2023-06-30T06:27:15.243Z,31.81
2023-06-30T06:29:42.540Z,31.74
2023-06-30T06:32:09.986Z,31.50
2023-06-30T06:34:37.369Z,30.70
2023-06-30T06:37:04.996Z,30.31
2023-06-30T06:39:32.340Z,30.23
2023-06-30T06:41:59.663Z,30.43
2023-06-30T06:44:27.010Z,30.39
2023-06-30T06:47:32.925Z,30.09
2023-06-30T06:50:01.947Z,29.81
2023-06-30T06:52:29.367Z,29.55
2023-06-30T06:54:56.697Z,29.69
2023-06-30T06:57:24.017Z,29.73
2023-06-30T06:59:51.325Z,29.16
2023-06-30T07:02:18.685Z,29.09
2023-06-30T07:04:46.057Z,28.87
2023-06-30T07:07:13.429Z,28.36
2023-06-30T07:09:40.815Z,27.98
2023-06-30T07:12:08.631Z,27.62
2023-06-30T07:14:36.937Z,27.67
2023-06-30T07:17:04.628Z,27.54
2023-06-30T07:19:32.021Z,27.71
2023-06-30T07:21:59.295Z,27.76
2023-06-30T07:24:26.717Z,27.17
2023-06-30T07:26:55.256Z,26.30
2023-06-30T07:29:22.785Z,26.12
2023-06-30T07:31:50.372Z,25.51
2023-06-30T07:34:20.319Z,25.63
2023-06-30T07:36:47.699Z,25.91
2023-06-30T07:39:15.099Z,26.26
2023-06-30T07:41:42.580Z,25.73
2023-06-30T07:44:12.917Z,25.05
2023-06-30T07:46:40.239Z,25.56
2023-06-30T07:49:07.644Z,25.44
2023-06-30T07:51:35.026Z,25.89
2023-06-30T07:54:06.365Z,25.96
2023-06-30T07:56:33.908Z,26.00
2023-06-30T07:59:01.260Z,25.55
2023-06-30T08:01:28.561Z,25.34
2023-06-30T08:03:56.209Z,24.55
2023-06-30T08:06:23.924Z,24.84
2023-06-30T08:08:51.535Z,25.42
2023-06-30T08:11:18.888Z,25.50
2023-06-30T08:13:46.188Z,25.43
2023-06-30T08:16:14.162Z,25.03
2023-06-30T08:18:51.315Z,24.48
2023-06-30T08:21:20.030Z,24.41
2023-06-30T08:23:47.631Z,24.45
2023-06-30T08:26:15.837Z,25.00
2023-06-30T08:28:43.340Z,24.68
2023-06-30T08:31:10.724Z,24.54
2023-06-30T08:33:40.947Z,24.29
2023-06-30T08:36:08.719Z,23.82
2023-06-30T08:38:36.064Z,23.54
2023-06-30T08:41:04.550Z,23.53
2023-06-30T08:43:32.440Z,23.16
2023-06-30T08:46:02.490Z,23.50
2023-06-30T08:48:30.563Z,22.97
2023-06-30T08:50:59.555Z,22.50
2023-06-30T08:53:28.777Z,22.97
2023-06-30T08:55:57.168Z,22.95
2023-06-30T08:58:26.750Z,22.92
2023-06-30T09:00:54.974Z,22.61
2023-06-30T09:03:22.894Z,22.31
2023-06-30T09:05:56.058Z,22.30
2023-06-30T09:08:26.961Z,22.03
2023-06-30T09:10:57.386Z,21.92
2023-06-30T09:13:25.014Z,21.42
2023-06-30T09:15:54.888Z,21.87
2023-06-30T09:18:22.304Z,21.82
2023-06-30T09:20:49.632Z,21.76
2023-06-30T09:23:17.915Z,21.90
2023-06-30T09:25:45.921Z,21.95
2023-06-30T09:28:15.696Z,21.56
2023-06-30T09:30:47.558Z,21.64
2023-06-30T09:33:16.392Z,21.27
2023-06-30T09:35:46.292Z,21.52
2023-06-30T09:38:18.924Z,21.58
2023-06-30T09:40:48.286Z,21.29
2023-06-30T09:43:26.696Z,21.53
2023-06-30T09:46:01.473Z,22.03
2023-06-30T09:48:35.790Z,22.56
2023-06-30T09:51:03.204Z,22.36
2023-06-30T09:53:39.503Z,21.64
2023-06-30T09:56:07.826Z,21.45
2023-06-30T09:58:37.194Z,21.05
2023-06-30T10:01:04.772Z,21.17
2023-06-30T10:03:33.198Z,21.06
2023-06-30T10:06:00.632Z,21.07
2023-06-30T10:08:27.940Z,20.57
2023-06-30T10:10:55.744Z,20.25
2023-06-30T10:13:23.488Z,19.92
2023-06-30T10:15:50.858Z,19.96
2023-06-30T10:18:18.876Z,19.52
2023-06-30T10:20:49.513Z,19.68
2023-06-30T10:23:20.248Z,19.88
2023-06-30T10:25:47.940Z,20.11
2023-06-30T10:28:15.871Z,19.63
2023-06-30T10:30:43.298Z,19.97
2023-06-30T10:33:10.714Z,20.09
2023-06-30T10:35:38.934Z,20.26
2023-06-30T10:38:06.435Z,20.85
2023-06-30T10:40:34.162Z,21.31
2023-06-30T10:43:01.570Z,21.35
2023-06-30T10:45:30.403Z,21.19
2023-06-30T10:47:58.854Z,21.39
2023-06-30T10:50:26.311Z,21.51
2023-06-30T10:52:54.696Z,20.96
2023-06-30T10:55:23.870Z,20.63
2023-06-30T10:57:52.938Z,20.43
2023-06-30T11:00:26.694Z,20.28
2023-06-30T11:03:00.832Z,20.25
2023-06-30T11:05:29.909Z,19.96
2023-06-30T11:08:04.712Z,19.56
2023-06-30T11:10:36.131Z,19.59
2023-06-30T11:13:05.104Z,19.23
2023-06-30T11:15:46.330Z,18.88
2023-06-30T11:18:22.377Z,18.88
2023-06-30T11:20:59.656Z,19.14
2023-06-30T11:23:37.932Z,18.98
2023-06-30T11:26:15.483Z,19.25
2023-06-30T11:28:43.578Z,19.88
2023-06-30T11:31:14.276Z,20.11
2023-06-30T11:33:42.384Z,19.97
2023-06-30T11:36:16.513Z,19.96
2023-06-30T11:38:47.707Z,19.98
2023-06-30T11:41:21.889Z,20.27
2023-06-30T11:43:55.034Z,20.35
2023-06-30T11:46:22.877Z,20.11
2023-06-30T11:48:50.675Z,20.24
2023-06-30T11:51:18.411Z,20.27
2023-06-30T11:53:49.090Z,20.92
2023-06-30T11:56:19.178Z,20.87
2023-06-30T11:58:53.360Z,20.77
2023-06-30T12:01:23.481Z,21.05
2023-06-30T12:04:01.154Z,20.96
2023-06-30T12:06:29.463Z,22.74
2023-06-30T12:08:59.753Z,24.34
2023-06-30T12:11:29.700Z,25.18
2023-06-30T12:13:57.013Z,25.39
2023-06-30T12:16:27.768Z,24.76
2023-06-30T12:18:55.035Z,24.68
2023-06-30T12:21:22.493Z,24.55
2023-06-30T12:23:49.834Z,24.34
2023-06-30T12:26:17.177Z,24.06
2023-06-30T12:28:44.529Z,24.09
2023-06-30T12:31:11.882Z,23.88
2023-06-30T12:33:39.347Z,23.30
2023-06-30T12:36:07.537Z,22.86
2023-06-30T12:38:34.990Z,23.13
2023-06-30T12:41:02.863Z,23.49
2023-06-30T12:43:31.997Z,23.86
2023-06-30T12:45:59.446Z,23.97
2023-06-30T12:48:26.796Z,23.85
2023-06-30T12:50:57.368Z,24.35
2023-06-30T12:53:25.055Z,24.44
2023-06-30T12:55:53.949Z,24.77
2023-06-30T12:58:21.370Z,25.25
2023-06-30T13:00:48.752Z,25.89
2023-06-30T13:03:16.303Z,27.00
2023-06-30T13:05:43.801Z,28.11
2023-06-30T13:08:11.162Z,29.00
2023-06-30T13:10:38.536Z,31.25
2023-06-30T13:13:05.857Z,32.66
2023-06-30T13:15:33.486Z,33.22
2023-06-30T13:18:00.868Z,33.67
2023-06-30T13:20:28.290Z,34.02
2023-06-30T13:23:10.123Z,34.82
2023-06-30T13:25:39.908Z,35.46
2023-06-30T13:28:07.253Z,35.81
2023-06-30T13:30:35.905Z,36.32
2023-06-30T13:33:03.289Z,36.87
2023-06-30T13:35:32.066Z,36.94
2023-06-30T13:37:59.396Z,37.08
2023-06-30T13:40:26.973Z,37.37
2023-06-30T13:42:55.196Z,37.84
2023-06-30T13:45:22.584Z,37.56
2023-06-30T13:47:50.224Z,38.15
2023-06-30T13:50:17.610Z,39.26
2023-06-30T13:52:45.002Z,39.51
2023-06-30T13:55:12.434Z,39.37
2023-06-30T13:57:39.800Z,39.16
2023-06-30T14:00:07.734Z,39.18
2023-06-30T14:02:35.196Z,39.23
2023-06-30T14:05:02.986Z,39.10
2023-06-30T14:07:30.544Z,39.54
2023-06-30T14:09:59.363Z,39.34
2023-06-30T14:12:26.737Z,39.41
2023-06-30T14:14:54.357Z,39.28
2023-06-30T14:17:21.793Z,39.59
2023-06-30T14:19:51.378Z,39.53
2023-06-30T14:22:19.771Z,39.18
2023-06-30T14:24:47.136Z,38.47
2023-06-30T14:27:14.615Z,38.77
2023-06-30T14:29:43.668Z,38.26
2023-06-30T14:32:11.216Z,38.05
2023-06-30T14:34:39.539Z,38.04
2023-06-30T14:37:06.893Z,38.09
2023-06-30T14:39:34.199Z,38.02
2023-06-30T14:42:02.957Z,38.07
2023-06-30T14:44:30.504Z,38.13
2023-06-30T14:46:59.894Z,38.80
2023-06-30T14:49:27.749Z,38.68
2023-06-30T14:51:55.127Z,39.31
2023-06-30T14:54:22.478Z,39.32
2023-06-30T14:56:49.967Z,39.08
2023-06-30T15:00:08.547Z,45.46
2023-06-30T15:02:36.231Z,43.37
2023-06-30T15:05:04.628Z,42.08
2023-06-30T15:07:32.923Z,41.16
2023-06-30T15:10:01.254Z,41.12
2023-06-30T15:12:28.616Z,40.83
2023-06-30T15:14:56.003Z,40.38
2023-06-30T15:17:23.571Z,39.92
2023-06-30T15:19:51.323Z,39.78
2023-06-30T15:22:18.956Z,39.39
2023-06-30T15:24:46.353Z,39.33
2023-06-30T15:27:13.742Z,39.98
2023-06-30T15:29:41.178Z,39.74
2023-06-30T15:32:08.682Z,39.73
2023-06-30T15:34:36.069Z,38.99
2023-06-30T15:37:04.772Z,38.67
2023-06-30T15:39:32.681Z,38.62
2023-06-30T15:42:00.271Z,38.29
2023-06-30T15:44:27.641Z,38.22
2023-06-30T15:46:54.977Z,38.02
2023-06-30T15:49:22.707Z,38.76
2023-06-30T15:51:53.162Z,38.34
2023-06-30T15:54:20.604Z,37.84
2023-06-30T15:56:48.227Z,37.76
2023-06-30T15:59:15.609Z,38.22
2023-06-30T16:01:44.198Z,37.58
2023-06-30T16:04:11.689Z,37.04
2023-06-30T16:06:39.158Z,37.29
2023-06-30T16:09:06.594Z,37.30
2023-06-30T16:11:33.905Z,36.81
2023-06-30T16:14:01.227Z,36.67
2023-06-30T16:16:30.016Z,36.40
2023-06-30T16:18:57.463Z,36.51
2023-06-30T16:21:24.916Z,36.06
2023-06-30T16:23:52.316Z,35.83
2023-06-30T16:26:22.561Z,35.56
2023-06-30T16:28:49.918Z,35.27
2023-06-30T16:31:17.516Z,35.02
2023-06-30T16:33:44.889Z,35.31
2023-06-30T16:36:12.301Z,35.13
2023-06-30T16:38:42.346Z,34.97
2023-06-30T16:41:09.688Z,35.08
2023-06-30T16:43:37.036Z,35.25
2023-06-30T16:46:04.389Z,35.19
2023-06-30T16:48:31.892Z,35.23
2023-06-30T16:51:02.181Z,35.35
2023-06-30T16:53:29.559Z,34.83
2023-06-30T16:55:57.331Z,34.89
2023-06-30T16:58:26.377Z,34.91
2023-06-30T17:00:54.188Z,34.70
2023-06-30T17:03:21.740Z,34.45
2023-06-30T17:05:49.656Z,34.30
2023-06-30T17:08:17.273Z,34.21
2023-06-30T17:10:46.742Z,33.81
2023-06-30T17:13:14.381Z,33.87
2023-06-30T17:15:41.722Z,34.39
2023-06-30T17:18:09.344Z,34.08
2023-06-30T17:20:37.117Z,34.52
2023-06-30T17:23:06.595Z,34.67
2023-06-30T17:25:33.951Z,34.89
2023-06-30T17:28:01.440Z,34.95
2023-06-30T17:30:28.820Z,35.13
2023-06-30T17:32:56.192Z,35.12
2023-06-30T17:35:24.829Z,35.25
2023-06-30T17:37:52.907Z,35.23
2023-06-30T17:40:21.410Z,34.96
2023-06-30T17:42:48.805Z,35.45
2023-06-30T17:45:16.318Z,35.58
2023-06-30T17:47:43.745Z,35.80
2023-06-30T17:50:11.406Z,35.59
2023-06-30T17:52:38.793Z,35.84
2023-06-30T17:55:06.432Z,36.83
2023-06-30T17:57:33.834Z,37.01
2023-06-30T18:00:01.236Z,36.77
2023-06-30T18:02:28.603Z,38.19
2023-06-30T18:04:56.111Z,39.07
2023-06-30T18:07:23.690Z,39.80
2023-06-30T18:09:51.721Z,39.97
2023-06-30T18:12:19.103Z,40.29
2023-06-30T18:14:46.394Z,40.54
2023-06-30T18:17:16.257Z,40.92
2023-06-30T18:19:43.705Z,40.71
2023-06-30T18:22:11.183Z,40.58
2023-06-30T18:24:38.629Z,40.69
2023-06-30T18:27:06.594Z,40.75
2023-06-30T18:29:33.939Z,40.78
2023-06-30T18:32:01.520Z,40.94
2023-06-30T18:34:29.025Z,40.92
2023-06-30T18:36:56.416Z,40.71
2023-06-30T18:39:23.929Z,40.96
2023-06-30T18:41:51.354Z,40.70
2023-06-30T18:44:18.641Z,40.31
2023-06-30T18:46:46.073Z,40.55
2023-06-30T18:49:13.591Z,41.10
2023-06-30T18:51:43.761Z,41.55
2023-06-30T18:54:11.294Z,41.45
2023-06-30T18:56:39.053Z,41.70
2023-06-30T18:59:06.711Z,41.76
2023-06-30T19:01:34.197Z,41.66
2023-06-30T19:04:01.825Z,42.19
2023-06-30T19:06:29.402Z,43.61
2023-06-30T19:08:57.216Z,43.57
2023-06-30T19:11:24.730Z,43.81
2023-06-30T19:13:52.288Z,43.38
2023-06-30T19:16:19.918Z,43.48
2023-06-30T19:18:47.515Z,43.73
2023-06-30T19:21:15.061Z,43.78
2023-06-30T19:23:42.563Z,43.99
2023-06-30T19:26:10.531Z,43.82
2023-06-30T19:28:40.252Z,43.93
2023-06-30T19:31:08.054Z,43.76
2023-06-30T19:33:37.451Z,44.20
2023-06-30T19:36:05.189Z,44.45
2023-06-30T19:38:32.565Z,44.50
2023-06-30T19:41:00.002Z,44.54
2023-06-30T19:43:27.480Z,44.37
2023-06-30T19:45:54.880Z,44.51
2023-06-30T19:48:22.273Z,44.35
2023-06-30T19:50:50.592Z,44.51
2023-06-30T19:53:18.099Z,44.83
2023-06-30T19:55:46.267Z,44.69
2023-06-30T19:58:14.134Z,45.20
2023-06-30T20:00:41.539Z,45.06
2023-06-30T20:03:09.015Z,45.19
2023-06-30T20:05:36.797Z,45.20
2023-06-30T20:08:04.638Z,45.10
2023-06-30T20:10:31.941Z,45.19
2023-06-30T20:12:59.261Z,44.60
2023-06-30T20:15:27.081Z,44.44
2023-06-30T20:17:54.910Z,44.04
2023-06-30T20:20:22.522Z,43.96
2023-06-30T20:22:49.918Z,43.82
2023-06-30T20:25:19.600Z,43.52
2023-06-30T20:27:47.173Z,43.54
2023-06-30T20:30:14.509Z,42.81
2023-06-30T20:32:41.996Z,42.70
2023-06-30T20:35:10.213Z,42.06
2023-06-30T20:37:37.723Z,41.73
2023-06-30T20:40:05.781Z,41.39
2023-06-30T20:42:33.167Z,41.52
2023-06-30T20:45:00.505Z,41.63
2023-06-30T20:47:28.481Z,41.73
2023-06-30T20:49:55.922Z,41.29
2023-06-30T20:52:23.313Z,41.26
2023-06-30T20:54:50.635Z,41.57
2023-06-30T20:57:17.992Z,41.51
2023-06-30T20:59:45.340Z,41.37
2023-06-30T21:02:12.915Z,41.32
2023-06-30T21:04:40.513Z,41.38
2023-06-30T21:07:07.847Z,41.14
2023-06-30T21:09:36.822Z,41.47
2023-06-30T21:12:04.508Z,41.61
2023-06-30T21:14:31.840Z,41.10
2023-06-30T21:16:59.251Z,41.12
2023-06-30T21:19:26.620Z,41.39
2023-06-30T21:21:54.108Z,41.51
2023-06-30T21:24:21.442Z,41.66
2023-06-30T21:26:48.729Z,41.72
2023-06-30T21:29:16.085Z,42.01
2023-06-30T21:31:43.483Z,41.89
2023-06-30T21:34:11.033Z,42.09
2023-06-30T21:36:39.621Z,41.43
2023-06-30T21:39:07.576Z,41.91
2023-06-30T21:41:36.466Z,42.03
2023-06-30T21:44:04.198Z,41.95
2023-06-30T21:46:31.550Z,42.11
2023-06-30T21:48:58.940Z,42.04
2023-06-30T21:51:26.272Z,42.31
2023-06-30T21:53:53.631Z,42.00
2023-06-30T21:56:21.021Z,41.87
2023-06-30T21:58:48.342Z,42.62
2023-06-30T22:01:20.172Z,43.41
2023-06-30T22:03:50.779Z,43.31
2023-06-30T22:06:18.228Z,43.12
2023-06-30T22:08:45.562Z,42.51
2023-06-30T22:11:13.064Z,42.47
2023-06-30T22:13:40.407Z,42.04
2023-06-30T22:16:07.747Z,42.20
2023-06-30T22:18:35.043Z,42.54
2023-06-30T22:21:04.229Z,41.98
2023-06-30T22:23:31.577Z,42.14
2023-06-30T22:25:58.965Z,42.21
2023-06-30T22:28:26.286Z,41.93
2023-06-30T22:30:53.677Z,42.37
2023-06-30T22:33:21.048Z,42.17
2023-06-30T22:35:48.354Z,43.30
2023-06-30T22:38:15.689Z,43.67
2023-06-30T22:40:43.027Z,43.70
2023-06-30T22:43:10.363Z,43.82
2023-06-30T22:45:37.928Z,44.16
2023-06-30T22:48:05.612Z,44.21
2023-06-30T22:50:33.050Z,43.25
2023-06-30T22:53:00.408Z,43.14
2023-06-30T22:55:28.212Z,42.63
2023-06-30T22:57:55.528Z,42.03
2023-06-30T23:00:22.888Z,42.23
2023-06-30T23:02:50.205Z,42.78
2023-06-30T23:05:17.485Z,42.96
2023-06-30T23:07:45.419Z,42.69
2023-06-30T23:10:12.832Z,42.53
2023-06-30T23:12:40.280Z,42.56
2023-06-30T23:15:07.884Z,42.32
2023-06-30T23:17:35.390Z,42.60
2023-06-30T23:20:04.016Z,42.64
2023-06-30T23:22:32.148Z,42.55
2023-06-30T23:25:01.035Z,42.38
2023-06-30T23:27:30.530Z,42.32
2023-06-30T23:29:57.998Z,42.45
2023-06-30T23:32:25.514Z,43.30
2023-06-30T23:34:53.034Z,43.47
2023-06-30T23:37:20.440Z,43.10
2023-06-30T23:39:52.247Z,43.48
2023-06-30T23:42:19.659Z,44.18
2023-06-30T23:44:46.979Z,43.86
2023-06-30T23:47:16.992Z,43.61
2023-06-30T23:49:46.224Z,43.56
2023-06-30T23:52:13.591Z,43.25
2023-06-30T23:54:41.016Z,43.79
2023-06-30T23:57:08.330Z,43.62
2023-06-30T23:59:35.638Z,43.89
